createdAt,value
2023-02-11T00:02:42.228Z,62.57
2023-02-11T00:05:48.245Z,62.90
2023-02-11T00:08:55.228Z,63.29
2023-02-11T00:12:03.795Z,62.51
2023-02-11T00:15:13.130Z,60.66
2023-02-11T00:18:19.618Z,60.80
2023-02-11T00:21:28.955Z,61.09
2023-02-11T00:24:34.934Z,63.66
2023-02-11T00:27:44.363Z,63.64
2023-02-11T00:30:58.321Z,63.20
2023-02-11T00:34:05.010Z,64.77
2023-02-11T00:37:12.230Z,64.58
2023-02-11T00:40:21.926Z,63.97
2023-02-11T00:43:30.695Z,63.33
2023-02-11T00:46:37.997Z,63.41
2023-02-11T00:49:43.903Z,63.39
2023-02-11T00:52:50.725Z,62.98
2023-02-11T00:55:56.770Z,62.06
2023-02-11T00:59:08.242Z,61.13
2023-02-11T01:02:14.063Z,61.55
2023-02-11T01:05:23.904Z,60.37
2023-02-11T01:08:30.129Z,60.16
2023-02-11T01:11:36.915Z,59.91
2023-02-11T01:14:46.347Z,59.22
2023-02-11T01:17:53.238Z,58.99
2023-02-11T01:20:59.173Z,58.72
2023-02-11T01:24:05.807Z,58.31
2023-02-11T01:27:11.794Z,57.57
2023-02-11T01:30:23.206Z,58.15
2023-02-11T01:33:29.106Z,58.22
2023-02-11T01:36:35.760Z,58.17
2023-02-11T01:39:41.658Z,57.74
2023-02-11T01:42:50.919Z,57.96
2023-02-11T01:46:11.215Z,58.84
2023-02-11T01:49:24.512Z,58.82
2023-02-11T01:52:37.916Z,59.10
2023-02-11T01:55:57.141Z,58.68
2023-02-11T01:59:14.744Z,58.89
2023-02-11T02:02:32.801Z,57.54
2023-02-11T02:05:52.183Z,55.99
2023-02-11T02:09:08.902Z,55.77
2023-02-11T02:12:14.961Z,55.26
2023-02-11T02:15:27.502Z,53.65
2023-02-11T02:18:51.728Z,52.68
2023-02-11T02:23:05.308Z,52.14
2023-02-11T02:26:49.792Z,51.96
2023-02-11T02:30:36.879Z,51.66
2023-02-11T02:33:58.542Z,51.25
2023-02-11T02:37:18.222Z,50.88
2023-02-11T02:40:34.442Z,53.91
2023-02-11T02:43:47.703Z,57.35
2023-02-11T02:46:53.515Z,58.92
2023-02-11T02:50:03.588Z,58.09
2023-02-11T02:53:35.243Z,55.09
2023-02-11T02:56:54.337Z,52.75
2023-02-11T03:00:20.845Z,51.89
2023-02-11T03:03:45.244Z,52.35
2023-02-11T03:07:06.881Z,51.72
2023-02-11T03:10:24.520Z,51.46
2023-02-11T03:13:37.444Z,52.45
2023-02-11T03:16:46.701Z,53.60
2023-02-11T03:19:55.107Z,54.24
2023-02-11T03:23:13.952Z,54.96
2023-02-11T03:26:28.949Z,55.95
2023-02-11T03:29:46.691Z,55.81
2023-02-11T03:33:00.983Z,56.10
2023-02-11T03:36:16.064Z,54.60
2023-02-11T03:39:32.567Z,55.45
2023-02-11T03:42:46.889Z,53.82
2023-02-11T03:45:58.764Z,53.74
2023-02-11T03:49:12.648Z,52.33
2023-02-11T03:52:23.062Z,52.79
2023-02-11T03:55:39.031Z,51.42
2023-02-11T03:58:47.073Z,51.02
2023-02-11T04:01:54.268Z,51.38
2023-02-11T04:05:00.543Z,50.09
2023-02-11T04:08:08.765Z,51.60
2023-02-11T04:11:17.182Z,49.73
2023-02-11T04:14:26.921Z,48.78
2023-02-11T04:17:32.946Z,47.97
2023-02-11T04:20:39.592Z,48.58
2023-02-11T04:23:45.386Z,47.75
2023-02-11T04:26:54.820Z,47.25
2023-02-11T04:30:00.617Z,46.23
2023-02-11T04:33:07.414Z,45.40
2023-02-11T04:36:13.255Z,44.66
2023-02-11T04:39:20.415Z,44.06
2023-02-11T04:42:28.925Z,43.58
2023-02-11T04:45:36.323Z,43.76
2023-02-11T04:48:42.195Z,41.81
2023-02-11T04:51:49.655Z,42.12
2023-02-11T04:54:55.522Z,42.05
2023-02-11T04:58:04.780Z,40.66
2023-02-11T05:01:11.288Z,41.18
2023-02-11T05:04:17.949Z,39.65
2023-02-11T05:07:23.766Z,38.99
2023-02-11T05:10:30.316Z,37.78
2023-02-11T05:13:38.775Z,38.21
2023-02-11T05:16:45.506Z,37.69
2023-02-11T05:19:51.245Z,37.64
2023-02-11T05:22:57.799Z,37.90
2023-02-11T05:26:03.772Z,38.23
2023-02-11T05:29:12.952Z,37.83
2023-02-11T05:32:18.809Z,37.88
2023-02-11T05:35:26.368Z,37.65
2023-02-11T05:38:32.521Z,37.41
2023-02-11T05:41:39.162Z,36.62
2023-02-11T05:44:50.257Z,37.04
2023-02-11T05:47:57.240Z,37.85
2023-02-11T05:51:02.971Z,37.85
2023-02-11T05:54:09.822Z,37.71
2023-02-11T05:57:15.868Z,38.12
2023-02-11T06:00:25.719Z,36.80
2023-02-11T06:03:31.555Z,35.40
2023-02-11T06:06:38.414Z,36.28
2023-02-11T06:09:44.369Z,36.97
2023-02-11T06:12:51.057Z,36.98
2023-02-11T06:16:06.046Z,35.58
2023-02-11T06:19:12.716Z,36.20
2023-02-11T06:22:18.736Z,36.25
2023-02-11T06:25:25.357Z,35.99
2023-02-11T06:28:32.281Z,35.63
2023-02-11T06:31:42.119Z,35.03
2023-02-11T06:34:48.203Z,35.27
2023-02-11T06:37:54.884Z,35.45
2023-02-11T06:41:00.711Z,35.19
2023-02-11T06:44:07.546Z,34.99
2023-02-11T06:47:16.840Z,36.54
2023-02-11T06:50:23.730Z,36.86
2023-02-11T06:53:29.550Z,40.32
2023-02-11T06:56:37.558Z,39.27
2023-02-11T06:59:43.971Z,38.01
2023-02-11T07:02:53.216Z,38.01
2023-02-11T07:05:58.983Z,37.57
2023-02-11T07:09:05.629Z,38.35
2023-02-11T07:12:13.476Z,38.48
2023-02-11T07:15:20.369Z,38.25
2023-02-11T07:18:28.690Z,38.82
2023-02-11T07:21:35.295Z,38.57
2023-02-11T07:24:41.036Z,38.82
2023-02-11T07:27:50.287Z,38.93
2023-02-11T07:30:56.028Z,39.64
2023-02-11T07:34:07.032Z,39.04
2023-02-11T07:37:12.910Z,39.34
2023-02-11T07:40:19.870Z,38.74
2023-02-11T07:43:25.680Z,39.80
2023-02-11T07:46:32.548Z,39.32
2023-02-11T07:49:41.103Z,39.36
2023-02-11T07:52:47.710Z,38.97
2023-02-11T07:55:53.648Z,40.83
2023-02-11T07:59:05.166Z,41.20
2023-02-11T08:02:12.743Z,40.47
2023-02-11T08:05:22.134Z,41.22
2023-02-11T08:08:30.413Z,41.20
2023-02-11T08:11:39.343Z,40.63
2023-02-11T08:14:45.100Z,40.94
2023-02-11T08:17:51.616Z,40.76
2023-02-11T08:21:08.273Z,40.44
2023-02-11T08:24:15.575Z,52.48
2023-02-11T08:27:21.455Z,73.86
2023-02-11T08:30:28.243Z,60.90
2023-02-11T08:33:34.120Z,76.61
2023-02-11T08:36:45.777Z,52.20
2023-02-11T08:39:51.731Z,45.75
2023-02-11T08:42:59.592Z,97.10
2023-02-11T08:46:06.837Z,49.39
2023-02-11T08:49:14.624Z,53.69
2023-02-11T08:52:23.077Z,44.88
2023-02-11T08:55:29.854Z,44.16
2023-02-11T08:58:38.030Z,53.30
2023-02-11T09:01:44.958Z,48.99
2023-02-11T09:04:53.516Z,45.12
2023-02-11T09:08:06.042Z,44.07
2023-02-11T09:11:13.357Z,44.41
2023-02-11T09:14:27.187Z,45.69
2023-02-11T09:17:33.076Z,44.35
2023-02-11T09:20:39.936Z,43.44
2023-02-11T09:23:48.662Z,43.05
2023-02-11T09:26:55.438Z,44.44
2023-02-11T09:30:01.318Z,44.80
2023-02-11T09:33:08.100Z,44.47
2023-02-11T09:36:13.892Z,43.70
2023-02-11T09:39:23.517Z,43.56
2023-02-11T09:42:49.918Z,43.64
2023-02-11T09:45:59.800Z,40.44
2023-02-11T09:49:09.387Z,44.42
2023-02-11T09:52:38.761Z,43.73
2023-02-11T09:55:55.937Z,42.53
2023-02-11T09:59:05.257Z,42.01
2023-02-11T10:02:26.919Z,41.95
2023-02-11T10:06:06.715Z,42.45
2023-02-11T10:09:48.526Z,50.81
2023-02-11T10:13:27.748Z,47.64
2023-02-11T10:16:54.404Z,52.27
2023-02-11T10:20:24.908Z,42.94
2023-02-11T10:23:42.989Z,46.69
2023-02-11T10:26:50.218Z,42.81
2023-02-11T10:30:07.144Z,42.95
2023-02-11T10:33:29.799Z,43.87
2023-02-11T10:36:40.285Z,43.34
2023-02-11T10:39:47.173Z,41.99
2023-02-11T10:42:56.187Z,42.35
2023-02-11T10:46:09.176Z,42.81
2023-02-11T10:49:40.826Z,41.73
2023-02-11T10:52:47.367Z,42.70
2023-02-11T10:55:58.176Z,43.73
2023-02-11T10:59:10.552Z,46.77
2023-02-11T11:02:42.074Z,45.68
2023-02-11T11:05:58.726Z,42.94
2023-02-11T11:09:33.053Z,42.18
2023-02-11T11:12:51.644Z,44.75
2023-02-11T11:16:25.029Z,41.71
2023-02-11T11:19:36.873Z,47.01
2023-02-11T11:22:45.716Z,54.45
2023-02-11T11:26:08.420Z,46.36
2023-02-11T11:29:23.497Z,44.40
2023-02-11T11:32:37.290Z,45.62
2023-02-11T11:36:04.237Z,45.57
2023-02-11T11:39:26.414Z,44.29
2023-02-11T11:42:35.094Z,45.20
2023-02-11T11:45:42.790Z,43.26
2023-02-11T11:48:54.752Z,45.25
2023-02-11T11:52:30.628Z,44.18
2023-02-11T11:55:46.801Z,46.59
2023-02-11T11:58:54.574Z,45.01
2023-02-11T12:03:20.612Z,46.37
2023-02-11T12:06:59.575Z,45.10
2023-02-11T12:10:47.208Z,46.42
2023-02-11T12:14:18.916Z,45.35
2023-02-11T12:17:51.931Z,45.96
2023-02-11T12:21:29.580Z,46.21
2023-02-11T12:25:07.876Z,48.63
2023-02-11T12:28:40.282Z,47.04
2023-02-11T12:32:08.286Z,46.72
2023-02-11T12:35:43.586Z,48.00
2023-02-11T12:39:17.621Z,50.13
2023-02-11T12:43:19.989Z,48.62
2023-02-11T12:46:45.188Z,48.11
2023-02-11T12:50:14.228Z,46.43
2023-02-11T12:54:07.467Z,50.76
2023-02-11T12:57:26.160Z,49.04
2023-02-11T13:00:48.942Z,49.69
2023-02-11T13:04:12.055Z,50.19
2023-02-11T13:07:27.026Z,50.38
2023-02-11T13:10:41.150Z,54.58
2023-02-11T13:13:58.940Z,50.05
2023-02-11T13:17:20.921Z,54.37
2023-02-11T13:20:45.744Z,48.47
2023-02-11T13:24:07.571Z,48.45
2023-02-11T13:27:32.460Z,47.93
2023-02-11T13:30:47.713Z,47.60
2023-02-11T13:33:53.828Z,46.22
2023-02-11T13:37:03.241Z,45.86
2023-02-11T13:40:25.881Z,47.93
2023-02-11T13:43:37.392Z,48.52
2023-02-11T13:47:02.280Z,48.05
2023-02-11T13:50:24.925Z,46.91
2023-02-11T13:53:53.415Z,45.69
2023-02-11T13:57:42.819Z,46.98
2023-02-11T14:00:53.005Z,48.75
2023-02-11T14:04:39.453Z,49.55
2023-02-11T14:08:30.186Z,47.55
2023-02-11T14:11:58.384Z,49.78
2023-02-11T14:15:41.548Z,52.24
2023-02-11T14:19:06.469Z,51.25
2023-02-11T14:22:23.862Z,52.47
2023-02-11T14:25:32.277Z,49.41
2023-02-11T14:28:47.067Z,47.83
2023-02-11T14:32:11.015Z,47.60
2023-02-11T14:35:35.416Z,48.22
2023-02-11T14:39:15.332Z,46.83
2023-02-11T14:42:31.243Z,55.98
2023-02-11T14:45:51.451Z,48.93
2023-02-11T14:49:04.997Z,52.35
2023-02-11T14:52:30.529Z,56.47
2023-02-11T14:55:43.063Z,54.23
2023-02-11T14:58:52.253Z,55.23
2023-02-11T15:02:01.286Z,53.51
2023-02-11T15:05:21.364Z,54.74
2023-02-11T15:08:27.898Z,59.82
2023-02-11T15:11:41.652Z,54.88
2023-02-11T15:14:55.396Z,53.06
2023-02-11T15:18:09.913Z,51.44
2023-02-11T15:21:16.553Z,57.39
2023-02-11T15:24:31.292Z,66.68
2023-02-11T15:27:44.398Z,58.68
2023-02-11T15:30:59.843Z,54.80
2023-02-11T15:34:14.979Z,55.97
2023-02-11T15:37:26.997Z,61.83
2023-02-11T15:40:36.214Z,59.79
2023-02-11T15:43:49.356Z,57.02
2023-02-11T15:46:55.533Z,69.10
2023-02-11T15:50:06.089Z,55.02
2023-02-11T15:53:28.870Z,60.52
2023-02-11T15:56:45.380Z,61.87
2023-02-11T15:59:56.949Z,63.60
2023-02-11T16:03:03.610Z,62.30
2023-02-11T16:06:25.145Z,60.20
2023-02-11T16:09:40.080Z,62.17
2023-02-11T16:13:14.193Z,65.25
2023-02-11T16:16:27.285Z,72.61
2023-02-11T16:19:36.315Z,67.22
2023-02-11T16:22:50.511Z,68.21
2023-02-11T16:26:05.721Z,65.70
2023-02-11T16:29:20.331Z,61.73
2023-02-11T16:32:28.919Z,66.41
2023-02-11T16:35:35.916Z,65.71
2023-02-11T16:38:44.449Z,63.24
2023-02-11T16:41:52.767Z,60.04
2023-02-11T16:45:00.223Z,60.44
2023-02-11T16:48:10.691Z,63.81
2023-02-11T16:51:16.808Z,64.24
2023-02-11T16:54:27.074Z,66.42
2023-02-11T16:57:33.965Z,66.29
2023-02-11T17:00:41.260Z,64.93
2023-02-11T17:03:47.266Z,61.39
2023-02-11T17:06:55.933Z,59.43
2023-02-11T17:10:05.928Z,60.15
2023-02-11T17:13:12.489Z,64.66
2023-02-11T17:16:26.557Z,64.58
2023-02-11T17:19:33.664Z,64.02
2023-02-11T17:22:39.743Z,63.40
2023-02-11T17:25:49.441Z,62.40
2023-02-11T17:28:56.306Z,61.70
2023-02-11T17:32:03.246Z,62.80
2023-02-11T17:35:10.700Z,61.82
2023-02-11T17:38:17.507Z,65.39
2023-02-11T17:41:26.073Z,68.16
2023-02-11T17:44:32.575Z,67.31
2023-02-11T17:47:38.928Z,67.96
2023-02-11T17:50:45.765Z,66.98
2023-02-11T17:53:51.893Z,64.77
2023-02-11T17:57:01.297Z,66.55
2023-02-11T18:00:09.013Z,67.56
2023-02-11T18:03:21.621Z,69.35
2023-02-11T18:06:29.949Z,66.65
2023-02-11T18:09:40.976Z,64.18
2023-02-11T18:12:49.643Z,63.81
2023-02-11T18:15:56.407Z,62.86
2023-02-11T18:19:02.567Z,65.71
2023-02-11T18:22:10.033Z,83.23
2023-02-11T18:25:19.093Z,91.73
2023-02-11T18:28:28.429Z,77.26
2023-02-11T18:31:35.521Z,72.64
2023-02-11T18:34:43.481Z,73.78
2023-02-11T18:37:49.934Z,65.70
2023-02-11T18:41:00.327Z,72.56
2023-02-11T18:44:08.963Z,93.00
2023-02-11T18:47:15.757Z,66.99
2023-02-11T18:50:24.750Z,63.30
2023-02-11T18:53:31.563Z,99.36
2023-02-11T18:56:46.977Z,119.37
2023-02-11T18:59:59.163Z,92.46
2023-02-11T19:03:06.166Z,104.48
2023-02-11T19:06:20.316Z,85.69
2023-02-11T19:09:28.396Z,77.43
2023-02-11T19:12:35.838Z,64.75
2023-02-11T19:15:48.729Z,69.86
2023-02-11T19:18:55.494Z,68.61
2023-02-11T19:22:09.185Z,62.28
2023-02-11T19:25:17.417Z,63.07
2023-02-11T19:28:26.328Z,76.93
2023-02-11T19:31:36.649Z,66.20
2023-02-11T19:34:44.105Z,57.62
2023-02-11T19:37:50.802Z,58.76
2023-02-11T19:40:59.816Z,53.54
2023-02-11T19:44:08.619Z,54.15
2023-02-11T19:47:18.241Z,53.88
2023-02-11T19:50:25.317Z,52.33
2023-02-11T19:53:31.393Z,51.78
2023-02-11T19:56:40.396Z,55.05
2023-02-11T19:59:46.334Z,56.00
2023-02-11T20:02:55.953Z,54.03
2023-02-11T20:06:02.025Z,57.86
2023-02-11T20:09:12.353Z,55.13
2023-02-11T20:12:25.755Z,57.49
2023-02-11T20:15:32.443Z,58.90
2023-02-11T20:18:41.501Z,68.73
2023-02-11T20:21:56.231Z,69.22
2023-02-11T20:25:02.195Z,67.95
2023-02-11T20:28:08.801Z,78.41
2023-02-11T20:31:17.326Z,79.44
2023-02-11T20:34:26.869Z,102.88
2023-02-11T20:37:33.164Z,106.56
2023-02-11T20:40:39.965Z,197.43
2023-02-11T20:43:49.673Z,137.88
2023-02-11T20:46:57.384Z,170.32
2023-02-11T20:50:05.981Z,129.17
2023-02-11T20:53:15.623Z,121.44
2023-02-11T20:56:26.242Z,125.58
2023-02-11T20:59:33.470Z,109.90
2023-02-11T21:02:39.540Z,147.21
2023-02-11T21:05:51.833Z,134.00
2023-02-11T21:09:00.771Z,125.82
2023-02-11T21:12:08.945Z,109.64
2023-02-11T21:15:16.997Z,90.44
2023-02-11T21:18:23.904Z,87.28
2023-02-11T21:21:33.526Z,87.01
2023-02-11T21:24:40.242Z,66.83
2023-02-11T21:27:46.263Z,61.05
2023-02-11T21:30:54.773Z,48.36
2023-02-11T21:34:02.361Z,50.76
2023-02-11T21:37:11.929Z,46.07
2023-02-11T21:40:17.779Z,40.86
2023-02-11T21:43:25.788Z,36.75
2023-02-11T21:46:32.459Z,34.95
2023-02-11T21:49:42.298Z,36.17
2023-02-11T21:52:51.142Z,31.86
2023-02-11T21:56:07.300Z,32.65
2023-02-11T21:59:17.988Z,31.42
2023-02-11T22:02:24.539Z,29.34
2023-02-11T22:05:30.736Z,30.76
2023-02-11T22:08:40.808Z,33.18
2023-02-11T22:11:46.937Z,42.21
2023-02-11T22:14:55.757Z,41.22
2023-02-11T22:18:01.557Z,37.60
2023-02-11T22:21:12.836Z,35.65
2023-02-11T22:24:21.353Z,34.05
2023-02-11T22:27:29.230Z,32.87
2023-02-11T22:30:35.145Z,32.64
2023-02-11T22:33:41.997Z,31.40
2023-02-11T22:36:49.592Z,66.53
2023-02-11T22:39:59.137Z,43.02
2023-02-11T22:43:05.061Z,36.20
2023-02-11T22:46:12.630Z,37.70
2023-02-11T22:49:21.246Z,34.94
2023-02-11T22:52:28.527Z,33.73
2023-02-11T22:55:41.253Z,33.03
2023-02-11T22:58:48.029Z,33.70
2023-02-11T23:01:55.947Z,35.30
2023-02-11T23:05:03.768Z,31.31
2023-02-11T23:08:10.761Z,30.29
2023-02-11T23:11:23.985Z,31.04
2023-02-11T23:14:30.136Z,35.60
2023-02-11T23:17:37.075Z,32.26
2023-02-11T23:20:46.687Z,31.87
2023-02-11T23:24:01.445Z,32.17
2023-02-11T23:27:13.291Z,27.41
2023-02-11T23:30:22.054Z,24.86
2023-02-11T23:33:27.838Z,24.74
2023-02-11T23:36:35.025Z,24.79
2023-02-11T23:39:41.137Z,26.34
2023-02-11T23:42:52.507Z,25.13
2023-02-11T23:45:58.468Z,29.72
2023-02-11T23:49:05.412Z,30.62
2023-02-11T23:52:11.416Z,26.87
2023-02-11T23:55:18.234Z,29.17
2023-02-11T23:58:27.029Z,32.05
